createdAt,value
2018-05-04T00:03:16.324Z,55.20
2018-05-04T00:08:17.333Z,54.90
2018-05-04T00:13:18.322Z,54.90
2018-05-04T00:18:19.294Z,55.00
2018-05-04T00:23:21.061Z,55.70
2018-05-04T00:28:22.058Z,55.70
2018-05-04T00:33:23.060Z,55.40
2018-05-04T00:38:24.060Z,55.60
2018-05-04T00:43:25.053Z,56.10
2018-05-04T00:48:26.038Z,56.10
2018-05-04T00:53:27.032Z,56.20
2018-05-04T00:58:28.022Z,56.60
2018-05-04T01:03:29.017Z,57.10
2018-05-04T01:08:30.022Z,57.00
2018-05-04T01:13:31.005Z,57.30
2018-05-04T01:18:31.994Z,57.40
2018-05-04T01:23:32.965Z,57.80
2018-05-04T01:28:34.697Z,58.20
2018-05-04T01:33:35.689Z,58.20
2018-05-04T01:38:37.418Z,59.00
2018-05-04T01:43:38.410Z,59.00
2018-05-04T01:48:39.389Z,58.90
2018-05-04T01:53:41.132Z,59.20
2018-05-04T01:58:42.142Z,59.10
2018-05-04T02:03:43.157Z,59.60
2018-05-04T02:08:44.166Z,59.70
2018-05-04T02:13:45.170Z,59.80
2018-05-04T02:18:46.173Z,59.90
2018-05-04T02:23:47.165Z,60.10
2018-05-04T02:28:48.157Z,59.90
2018-05-04T02:33:49.155Z,60.20
2018-05-04T02:38:50.146Z,60.10
2018-05-04T02:43:51.150Z,59.90
2018-05-04T02:48:52.878Z,60.40
2018-05-04T02:53:53.910Z,60.40
2018-05-04T02:58:54.911Z,60.40
2018-05-04T03:03:55.889Z,60.40
2018-05-04T03:08:57.606Z,60.90
2018-05-04T03:13:58.586Z,60.90
2018-05-04T03:18:59.574Z,61.00
2018-05-04T03:24:00.562Z,60.50
2018-05-04T03:29:01.620Z,60.10
2018-05-04T03:34:02.630Z,60.00
2018-05-04T03:39:04.394Z,60.10
2018-05-04T03:44:05.377Z,60.10
2018-05-04T03:49:06.384Z,60.10
2018-05-04T03:54:07.380Z,60.50
2018-05-04T03:59:20.665Z,60.90
2018-05-04T04:04:21.662Z,61.00
2018-05-04T04:09:22.663Z,61.60
2018-05-04T04:14:23.653Z,62.10
2018-05-04T04:19:24.641Z,61.60
2018-05-04T04:24:25.646Z,61.30
2018-05-04T04:29:26.629Z,61.50
2018-05-04T04:34:27.609Z,61.40
2018-05-04T04:39:28.597Z,61.20
2018-05-04T04:44:29.593Z,60.50
2018-05-04T04:49:30.593Z,60.10
2018-05-04T04:54:31.583Z,58.90
2018-05-04T04:59:33.343Z,58.80
2018-05-04T05:04:34.353Z,58.80
2018-05-04T05:09:35.341Z,58.10
2018-05-04T05:14:36.327Z,57.60
2018-05-04T05:19:37.317Z,56.50
2018-05-04T05:24:38.318Z,55.70
2018-05-04T05:29:39.298Z,55.70
2018-05-04T05:34:41.030Z,54.20
2018-05-04T05:39:42.030Z,54.10
2018-05-04T05:44:43.025Z,53.50
2018-05-04T05:49:44.011Z,54.10
2018-05-04T05:54:44.998Z,53.10
2018-05-04T05:59:45.995Z,52.20
2018-05-04T06:04:47.004Z,51.10
2018-05-04T06:09:47.998Z,50.30
2018-05-04T06:14:49.041Z,49.60
2018-05-04T06:19:50.781Z,48.40
2018-05-04T06:24:51.766Z,48.30
2018-05-04T06:29:52.758Z,47.60
2018-05-04T06:34:53.771Z,47.10
2018-05-04T06:39:54.778Z,46.80
2018-05-04T06:44:55.789Z,45.40
2018-05-04T06:49:56.791Z,45.50
2018-05-04T06:54:57.795Z,45.50
2018-05-04T06:59:58.800Z,45.20
2018-05-04T07:04:59.793Z,44.40
2018-05-04T07:10:00.774Z,44.40
2018-05-04T07:15:01.830Z,44.80
2018-05-04T07:20:02.772Z,43.70
2018-05-04T07:25:03.781Z,43.20
2018-05-04T07:30:05.514Z,43.50
2018-05-04T07:35:06.506Z,43.50
2018-05-04T07:40:08.230Z,45.20
2018-05-04T07:45:09.234Z,45.10
2018-05-04T07:50:10.950Z,45.90
2018-05-04T07:55:11.960Z,45.80
2018-05-04T08:00:12.917Z,44.80
2018-05-04T08:05:14.685Z,44.20
2018-05-04T08:10:15.680Z,43.40
2018-05-04T08:15:17.423Z,45.20
2018-05-04T08:20:19.216Z,46.10
2018-05-04T08:25:20.955Z,46.60
2018-05-04T08:30:21.942Z,46.60
2018-05-04T08:35:23.712Z,45.80
2018-05-04T08:40:24.667Z,46.40
2018-05-04T08:45:25.652Z,46.50
2018-05-04T08:50:26.650Z,46.30
2018-05-04T08:55:27.637Z,47.20
2018-05-04T09:00:28.634Z,47.00
2018-05-04T09:05:29.754Z,47.60
2018-05-04T09:10:30.634Z,48.00
2018-05-04T09:15:32.349Z,47.20
2018-05-04T09:20:33.346Z,47.20
2018-05-04T09:25:35.070Z,47.80
2018-05-04T09:30:36.141Z,47.00
2018-05-04T09:35:37.021Z,46.70
2018-05-04T09:40:38.010Z,47.00
2018-05-04T09:45:39.746Z,45.90
2018-05-04T09:50:40.751Z,45.90
2018-05-04T09:55:41.743Z,46.00
2018-05-04T10:00:42.731Z,45.70
2018-05-04T10:05:43.722Z,44.10
2018-05-04T10:10:44.706Z,44.70
2018-05-04T10:15:45.691Z,46.00
2018-05-04T10:20:46.675Z,44.20
2018-05-04T10:25:48.444Z,43.40
2018-05-04T10:30:49.431Z,43.30
2018-05-04T10:35:50.429Z,42.90
2018-05-04T10:40:51.418Z,43.70
2018-05-04T10:45:52.409Z,43.30
2018-05-04T10:50:53.393Z,43.10
2018-05-04T10:55:54.399Z,42.60
2018-05-04T11:00:56.129Z,42.50
2018-05-04T11:05:57.135Z,42.50
2018-05-04T11:10:58.853Z,42.90
2018-05-04T11:15:59.851Z,42.90
2018-05-04T11:21:00.834Z,42.60
2018-05-04T11:26:01.822Z,43.50
2018-05-04T11:31:02.797Z,43.00
2018-05-04T11:36:03.809Z,42.40
2018-05-04T11:41:04.801Z,43.40
2018-05-04T11:46:05.789Z,43.00
2018-05-04T11:51:06.810Z,42.00
2018-05-04T11:56:07.797Z,42.60
2018-05-04T12:01:08.778Z,42.00
2018-05-04T12:06:10.518Z,41.90
2018-05-04T12:11:11.522Z,41.90
2018-05-04T12:16:13.327Z,40.90
2018-05-04T12:21:14.245Z,40.80
2018-05-04T12:26:15.994Z,41.60
2018-05-04T12:31:17.012Z,41.50
2018-05-04T12:36:17.994Z,40.80
2018-05-04T12:41:19.022Z,41.40
2018-05-04T12:46:20.025Z,40.20
2018-05-04T12:51:21.013Z,40.00
2018-05-04T12:56:22.765Z,40.30
2018-05-04T13:01:23.751Z,40.30
2018-05-04T13:06:25.501Z,40.10
2018-05-04T13:11:26.477Z,40.10
2018-05-04T13:16:28.225Z,39.30
2018-05-04T13:21:29.205Z,39.30
2018-05-04T13:26:30.934Z,39.20
2018-05-04T13:31:31.926Z,39.20
2018-05-04T13:36:32.945Z,39.30
2018-05-04T13:41:33.940Z,39.00
2018-05-04T13:46:34.925Z,40.00
2018-05-04T13:51:36.768Z,39.30
2018-05-04T13:56:37.744Z,39.30
2018-05-04T14:01:39.509Z,38.00
2018-05-04T14:06:40.525Z,38.00
2018-05-04T14:11:41.513Z,38.50
2018-05-04T14:16:42.514Z,37.40
2018-05-04T14:21:44.251Z,36.70
2018-05-04T14:26:45.237Z,36.70
2018-05-04T14:31:46.976Z,38.20
2018-05-04T14:36:48.003Z,38.00
2018-05-04T14:41:49.018Z,37.70
2018-05-04T14:46:50.011Z,36.50
2018-05-04T14:51:51.009Z,36.60
2018-05-04T14:56:52.005Z,36.30
2018-05-04T15:01:53.768Z,36.30
2018-05-04T15:06:54.786Z,36.10
2018-05-04T15:11:55.776Z,36.50
2018-05-04T15:16:56.765Z,36.00
2018-05-04T15:21:57.754Z,35.70
2018-05-04T15:26:58.771Z,36.10
2018-05-04T15:32:00.518Z,35.40
2018-05-04T15:37:01.506Z,35.40
2018-05-04T15:42:02.506Z,35.00
2018-05-04T15:47:03.505Z,35.50
2018-05-04T15:52:06.101Z,36.20
2018-05-04T15:57:07.825Z,34.90
2018-05-04T16:02:08.810Z,35.40
2018-05-04T16:07:09.837Z,34.90
2018-05-04T16:12:10.813Z,34.70
2018-05-04T16:17:11.793Z,34.80
2018-05-04T16:22:12.825Z,34.40
2018-05-04T16:27:13.806Z,35.00
2018-05-04T16:32:14.790Z,35.10
2018-05-04T16:37:16.542Z,35.20
2018-05-04T16:42:17.541Z,35.10
2018-05-04T16:47:21.374Z,35.10
2018-05-04T16:52:22.374Z,35.50
2018-05-04T16:57:23.376Z,35.50
2018-05-04T17:02:24.397Z,35.60
2018-05-04T17:07:25.408Z,35.80
2018-05-04T17:12:26.421Z,35.70
2018-05-04T17:17:27.409Z,35.70
2018-05-04T17:22:28.437Z,36.20
2018-05-04T17:27:30.181Z,36.90
2018-05-04T17:32:31.174Z,36.80
2018-05-04T17:37:32.937Z,37.40
2018-05-04T17:42:33.930Z,37.40
2018-05-04T17:47:34.956Z,38.00
2018-05-04T17:52:35.940Z,37.80
2018-05-04T17:57:36.940Z,38.20
2018-05-04T18:02:37.970Z,38.40
2018-05-04T18:07:38.958Z,38.90
2018-05-04T18:12:39.963Z,39.20
2018-05-04T18:17:41.699Z,39.90
2018-05-04T18:22:42.702Z,39.90
2018-05-04T18:27:43.703Z,40.20
2018-05-04T18:32:44.697Z,41.50
2018-05-04T18:37:46.488Z,41.60
2018-05-04T18:42:48.242Z,42.00
2018-05-04T18:47:49.237Z,42.00
2018-05-04T18:52:50.238Z,42.50
2018-05-04T18:57:51.358Z,43.10
2018-05-04T19:02:58.518Z,43.50
2018-05-04T19:07:59.530Z,43.90
2018-05-04T19:13:00.528Z,45.10
2018-05-04T19:18:01.522Z,44.80
2018-05-04T19:23:02.509Z,44.50
2018-05-04T19:28:03.494Z,45.60
2018-05-04T19:33:04.491Z,46.20
2018-05-04T19:38:05.491Z,46.50
2018-05-04T19:43:06.490Z,46.90
2018-05-04T19:48:08.214Z,47.50
2018-05-04T19:53:09.222Z,47.50
2018-05-04T19:58:10.951Z,48.10
2018-05-04T20:03:11.954Z,48.00
2018-05-04T20:08:13.674Z,48.80
2018-05-04T20:13:14.666Z,48.80
2018-05-04T20:18:15.662Z,49.10
2018-05-04T20:23:16.677Z,49.40
2018-05-04T20:28:17.671Z,49.70
2018-05-04T20:33:19.398Z,50.10
2018-05-04T20:38:20.402Z,50.20
2018-05-04T20:43:22.134Z,50.50
2018-05-04T20:48:23.138Z,50.50
2018-05-04T20:53:24.173Z,51.30
2018-05-04T20:58:25.921Z,51.90
2018-05-04T21:03:26.937Z,51.80
2018-05-04T21:08:27.941Z,52.50
2018-05-04T21:13:28.958Z,52.70
2018-05-04T21:18:29.958Z,52.80
2018-05-04T21:23:30.968Z,52.80
2018-05-04T21:28:31.978Z,52.80
2018-05-04T21:33:33.021Z,52.90
2018-05-04T21:38:34.014Z,52.90
2018-05-04T21:43:35.019Z,52.70
2018-05-04T21:48:36.031Z,53.50
2018-05-04T21:53:37.804Z,53.20
2018-05-04T21:58:39.543Z,53.10
2018-05-04T22:03:40.606Z,52.90
2018-05-04T22:08:41.726Z,53.20
2018-05-04T22:13:42.730Z,53.00
2018-05-04T22:18:43.796Z,53.10
2018-05-04T22:23:44.802Z,53.00
2018-05-04T22:28:45.846Z,52.80
2018-05-04T22:33:46.931Z,53.20
2018-05-04T22:38:47.941Z,53.30
2018-05-04T22:43:49.706Z,54.40
2018-05-04T22:48:50.717Z,54.30
2018-05-04T22:53:51.738Z,54.60
2018-05-04T22:58:53.527Z,54.30
2018-05-04T23:03:54.542Z,54.10
2018-05-04T23:08:55.549Z,53.50
2018-05-04T23:13:56.558Z,54.00
2018-05-04T23:18:57.549Z,54.50
2018-05-04T23:23:59.280Z,55.70
2018-05-04T23:29:00.266Z,55.60
2018-05-04T23:34:01.257Z,55.80
2018-05-04T23:39:02.266Z,56.90
2018-05-04T23:44:03.272Z,56.60
2018-05-04T23:49:04.286Z,56.90
2018-05-04T23:54:05.283Z,57.00
2018-05-04T23:59:06.281Z,56.70
